Addyston, OH

1:30 AM EDT on July 25, 2016 (GMT -0400)
Miami Township | | Change Station
Active Advisory: Excessive Heat Warning

Elev 817 ft 39.14 °N, 84.70 °W | Updated 21 seconds ago

Partly Cloudy
Partly Cloudy
79.3 °F
Feels Like 84 °F
N
0.0
Wind Variable Wind from SSE
Gusts 0.0 mph

Today
High -- | Low -- °F
--% Chance of Precip.
Yesterday
High -- | Low -- °F
Precip. -- in
Pressure 29.96 in
Visibility 9.0 miles
Clouds Few 25000 ft
Heat Index 84 °F
Dew Point 76 °F
Humidity 91%
Rainfall 0.00 in
Snow Depth Not available.
6:33 AM 8:56 PM
Waning Gibbous, 69% visible
METAR KCVG 250452Z 26003KT 9SM FEW250 27/24 A3000 RMK AO2 SLP144 T02720244 403440222
Pressure 29.96 in
Visibility 9.0 miles
Clouds Few 25000 ft
Heat Index 84 °F
Dew Point 76 °F
Humidity 91%
Rainfall 0.00 in
Snow Depth Not available.
6:33 AM 8:56 PM
Waning Gibbous, 69% visible
METAR KCVG 250452Z 26003KT 9SM FEW250 27/24 A3000 RMK AO2 SLP144 T02720244 403440222

10-Day Weather Forecast

Almanac

Astronomy

Jul. 25, 2016 Rise Set
Actual Time
Civil Twilight
Nautical Twilight
Astronomical Twilight
Moon
Length of Visible Light
Length of Day
Tomorrow will be .
, % of the Moon is Illuminated

Today's Extremes

State Highs State Lows

Community

WunderPhotos

Upload Photos

1,927,273 photos uploaded!

WunderBlog® & News

Nearby

Air Quality

  Air Quality AQ Index Pollutant
Not available.

Snow Depth

Station Depth Elevation

Earthquake Activity

City Distance Mag. Time & Date
Minimum magnitude displayed is 2.5.

Coastal Water Temperatures

Place Temperature

Stations

Nearby Weather Stations

Station Location Temp. Windchill Dew Point Humidity Wind Precip. Elev Updated Type
                   

Watches & Warnings

Excessive Heat Warning
Issued: 7:45 PM EDT Jul. 24, 2016 – National Weather Service

... Excessive heat warning remains in effect until 8 PM EDT
Monday...

* heat index values... 100 to 104 due to temperatures in the lower
90s... and dewpoints in the lower to middle 70s.

* Timing... highest temperatures and heat indices will occur
during the afternoon to early evening hours.

* Impacts... heat stroke... heat exhaustion and other heat
related illnesses will be possible... especially if you spend a
significant amount of time outdoors... or are involved in any
strenuous outdoor activity.

Precautionary/preparedness actions...

Wear light weight and loose fitting clothing and drink plenty of
water. If possible... spend more time in air conditioned or well-
ventilated places. Reschedule strenuous outdoor activities to
early morning or evening. Friends... relatives... or neighbors
should check on the elderly and people with chronic ailments...
who are usually the first to suffer from heat-related illness.

To reduce risk during outdoor work the occupational safety and
health administration recommends scheduling frequent rest breaks
in shaded or air conditioned environments. Anyone overcome by
heat should be moved to a cool and shaded location. Heat stroke
is an emergency... call 911.